createdAt,value
2023-01-26T00:00:56.556Z,40.33
2023-01-26T00:03:23.262Z,39.35
2023-01-26T00:05:49.611Z,38.90
2023-01-26T00:08:15.980Z,37.58
2023-01-26T00:10:50.040Z,38.25
2023-01-26T00:13:22.510Z,38.53
2023-01-26T00:15:49.330Z,36.38
2023-01-26T00:18:15.719Z,38.03
2023-01-26T00:20:42.096Z,38.22
2023-01-26T00:23:08.503Z,37.83
2023-01-26T00:25:34.883Z,38.63
2023-01-26T00:28:01.196Z,37.72
2023-01-26T00:30:27.595Z,39.28
2023-01-26T00:32:53.999Z,39.53
2023-01-26T00:35:20.409Z,38.42
2023-01-26T00:37:46.727Z,39.58
2023-01-26T00:40:13.418Z,39.28
2023-01-26T00:42:39.905Z,39.53
2023-01-26T00:45:06.769Z,37.15
2023-01-26T00:47:33.111Z,38.65
2023-01-26T00:49:59.425Z,39.03
2023-01-26T00:52:25.797Z,38.85
2023-01-26T00:54:52.098Z,38.42
2023-01-26T00:57:18.472Z,37.30
2023-01-26T00:59:44.804Z,38.70
2023-01-26T01:02:11.251Z,39.42
2023-01-26T01:04:37.578Z,40.38
2023-01-26T01:07:03.924Z,40.42
2023-01-26T01:09:30.291Z,40.95
2023-01-26T01:11:56.824Z,40.47
2023-01-26T01:14:23.197Z,38.40
2023-01-26T01:16:50.047Z,40.67
2023-01-26T01:19:18.156Z,40.20
2023-01-26T01:21:45.364Z,41.30
2023-01-26T01:24:12.521Z,39.05
2023-01-26T01:26:39.602Z,40.90
2023-01-26T01:29:07.184Z,40.70
2023-01-26T01:31:33.658Z,40.88
2023-01-26T01:34:00.063Z,42.33
2023-01-26T01:36:26.555Z,41.17
2023-01-26T01:38:52.960Z,41.83
2023-01-26T01:41:22.633Z,39.95
2023-01-26T01:43:50.465Z,42.90
2023-01-26T01:46:37.066Z,41.75
2023-01-26T01:49:26.239Z,41.15
2023-01-26T01:52:00.846Z,40.20
2023-01-26T01:54:39.593Z,39.90
2023-01-26T01:57:15.325Z,40.78
2023-01-26T01:59:46.316Z,40.13
2023-01-26T02:02:14.015Z,40.97
2023-01-26T02:04:41.545Z,40.70
2023-01-26T02:07:09.428Z,42.95
2023-01-26T02:09:56.725Z,44.88
2023-01-26T02:12:29.230Z,42.85
2023-01-26T02:14:57.751Z,47.15
2023-01-26T02:17:24.836Z,45.80
2023-01-26T02:20:15.529Z,45.63
2023-01-26T02:23:15.221Z,42.92
2023-01-26T02:25:49.543Z,42.90
2023-01-26T02:28:17.849Z,43.85
2023-01-26T02:30:44.940Z,42.15
2023-01-26T02:33:17.815Z,45.47
2023-01-26T02:35:44.166Z,43.22
2023-01-26T02:38:10.483Z,41.03
2023-01-26T02:40:53.506Z,43.50
2023-01-26T02:43:20.089Z,40.58
2023-01-26T02:45:46.791Z,42.35
2023-01-26T02:48:13.108Z,40.88
2023-01-26T02:50:39.455Z,44.33
2023-01-26T02:53:05.799Z,44.47
2023-01-26T02:55:32.115Z,44.80
2023-01-26T02:58:01.644Z,44.20
2023-01-26T03:00:36.989Z,41.70
2023-01-26T03:03:20.415Z,40.67
2023-01-26T03:05:47.098Z,41.43
2023-01-26T03:08:13.412Z,41.30
2023-01-26T03:10:39.799Z,43.70
2023-01-26T03:13:06.132Z,39.95
2023-01-26T03:15:42.800Z,39.67
2023-01-26T03:18:33.384Z,38.03
2023-01-26T03:21:23.616Z,36.15
2023-01-26T03:24:08.865Z,35.92
2023-01-26T03:26:54.171Z,36.75
2023-01-26T03:29:20.978Z,36.75
2023-01-26T03:31:48.010Z,39.20
2023-01-26T03:34:14.463Z,35.75
2023-01-26T03:36:41.019Z,37.60
2023-01-26T03:39:07.440Z,37.40
2023-01-26T03:41:52.295Z,41.45
2023-01-26T03:44:37.104Z,40.13
2023-01-26T03:47:21.727Z,40.67
2023-01-26T03:50:06.558Z,40.30
2023-01-26T03:52:51.258Z,38.15
2023-01-26T03:55:36.049Z,42.13
2023-01-26T03:58:02.423Z,40.00
2023-01-26T04:00:28.860Z,40.08
2023-01-26T04:03:13.785Z,41.42
2023-01-26T04:06:16.385Z,41.05
2023-01-26T04:08:44.565Z,39.55
2023-01-26T04:11:10.891Z,42.97
2023-01-26T04:13:55.554Z,46.22
2023-01-26T04:16:40.236Z,46.90
2023-01-26T04:19:25.424Z,42.15
2023-01-26T04:21:51.787Z,46.55
2023-01-26T04:24:21.798Z,45.90
2023-01-26T04:26:48.546Z,48.88
2023-01-26T04:29:16.032Z,51.88
2023-01-26T04:31:42.774Z,53.08
2023-01-26T04:34:14.324Z,56.75
2023-01-26T04:36:41.345Z,58.53
2023-01-26T04:39:08.033Z,60.38
2023-01-26T04:41:34.669Z,60.42
2023-01-26T04:44:01.320Z,60.63
2023-01-26T04:46:27.687Z,62.42
2023-01-26T04:48:54.010Z,62.85
2023-01-26T04:51:21.845Z,63.75
2023-01-26T04:53:49.334Z,64.40
2023-01-26T04:56:29.169Z,60.85
2023-01-26T04:58:56.183Z,58.45
2023-01-26T05:01:22.962Z,57.28
2023-01-26T05:03:49.857Z,63.13
2023-01-26T05:06:16.689Z,63.80
2023-01-26T05:08:43.174Z,62.75
2023-01-26T05:11:10.280Z,65.22
2023-01-26T05:13:37.181Z,60.40
2023-01-26T05:16:04.501Z,60.15
2023-01-26T05:18:30.892Z,62.60
2023-01-26T05:21:04.792Z,62.58
2023-01-26T05:25:57.371Z,43.90
2023-01-26T05:28:23.697Z,58.42
2023-01-26T05:30:50.082Z,64.45
2023-01-26T05:33:16.738Z,64.70
2023-01-26T05:35:43.079Z,59.22
2023-01-26T05:38:09.480Z,67.50
2023-01-26T05:40:35.894Z,60.92
2023-01-26T05:43:02.297Z,59.78
2023-01-26T05:45:28.769Z,63.03
2023-01-26T05:47:55.236Z,66.53
2023-01-26T05:50:21.614Z,62.67
2023-01-26T05:52:48.075Z,63.60
2023-01-26T05:55:14.392Z,62.10
2023-01-26T05:57:41.025Z,63.45
2023-01-26T06:00:08.733Z,58.88
2023-01-26T06:02:35.336Z,60.35
2023-01-26T06:05:01.694Z,59.35
2023-01-26T06:07:28.016Z,63.92
2023-01-26T06:09:54.332Z,61.58
2023-01-26T06:12:22.217Z,56.60
2023-01-26T06:14:48.601Z,59.72
2023-01-26T06:17:17.399Z,55.40
2023-01-26T06:19:53.420Z,57.75
2023-01-26T06:22:19.848Z,61.90
2023-01-26T06:24:46.590Z,57.67
2023-01-26T06:27:18.730Z,55.85
2023-01-26T06:29:45.706Z,54.35
2023-01-26T06:32:13.445Z,58.03
2023-01-26T06:34:39.852Z,52.97
2023-01-26T06:37:07.456Z,53.65
2023-01-26T06:39:33.903Z,53.72
2023-01-26T06:42:00.279Z,52.75
2023-01-26T06:44:26.601Z,55.35
2023-01-26T06:46:53.040Z,56.20
2023-01-26T06:49:19.461Z,57.63
2023-01-26T06:51:52.374Z,53.80
2023-01-26T06:54:18.767Z,52.17
2023-01-26T06:56:46.720Z,53.45
2023-01-26T06:59:13.197Z,54.45
2023-01-26T07:01:43.222Z,58.90
2023-01-26T07:04:09.740Z,53.95
2023-01-26T07:06:36.188Z,50.20
2023-01-26T07:09:02.582Z,53.17
2023-01-26T07:11:30.684Z,51.92
2023-01-26T07:13:57.448Z,53.88
2023-01-26T07:16:23.976Z,59.33
2023-01-26T07:18:50.555Z,56.78
2023-01-26T07:21:18.774Z,56.03
2023-01-26T07:23:46.371Z,56.08
2023-01-26T07:26:13.452Z,56.35
2023-01-26T07:28:40.613Z,54.75
2023-01-26T07:31:08.019Z,58.60
2023-01-26T07:33:36.106Z,54.47
2023-01-26T07:36:03.927Z,54.25
2023-01-26T07:38:35.075Z,55.53
2023-01-26T07:41:09.153Z,55.97
2023-01-26T07:43:37.128Z,57.70
2023-01-26T07:46:04.082Z,56.90
2023-01-26T07:48:30.841Z,56.22
2023-01-26T07:51:03.561Z,57.05
2023-01-26T07:53:33.814Z,57.80
2023-01-26T07:56:11.691Z,59.40
2023-01-26T07:58:38.898Z,60.42
2023-01-26T08:01:13.966Z,61.58
2023-01-26T08:03:41.631Z,58.60
2023-01-26T08:06:11.803Z,62.47
2023-01-26T08:08:42.593Z,60.13
2023-01-26T08:11:10.649Z,60.53
2023-01-26T08:13:37.649Z,64.57
2023-01-26T08:16:06.606Z,62.50
2023-01-26T08:18:33.000Z,63.63
2023-01-26T08:20:59.386Z,63.58
2023-01-26T08:23:25.999Z,66.13
2023-01-26T08:25:52.417Z,62.92
2023-01-26T08:28:21.089Z,62.25
2023-01-26T08:30:47.727Z,61.60
2023-01-26T08:33:14.155Z,57.42
2023-01-26T08:35:40.493Z,61.25
2023-01-26T08:38:06.944Z,58.60
2023-01-26T08:40:33.294Z,58.65
2023-01-26T08:43:01.549Z,57.13
2023-01-26T08:45:32.700Z,55.53
2023-01-26T08:47:59.103Z,59.03
2023-01-26T08:50:25.925Z,58.83
2023-01-26T08:52:56.035Z,58.15
2023-01-26T08:55:22.605Z,61.95
2023-01-26T08:57:52.535Z,59.70
2023-01-26T09:00:19.401Z,59.40
2023-01-26T09:02:45.991Z,55.90
2023-01-26T09:05:12.472Z,57.20
2023-01-26T09:07:38.936Z,58.70
2023-01-26T09:10:06.094Z,55.47
2023-01-26T09:12:32.469Z,54.47
2023-01-26T09:14:58.802Z,53.67
2023-01-26T09:17:25.243Z,52.30
2023-01-26T09:19:51.601Z,53.55
2023-01-26T09:22:18.003Z,52.83
2023-01-26T09:24:44.346Z,54.05
2023-01-26T09:27:10.690Z,54.83
2023-01-26T09:29:37.007Z,50.63
2023-01-26T09:32:03.552Z,51.17
2023-01-26T09:34:29.893Z,52.50
2023-01-26T09:36:56.262Z,54.10
2023-01-26T09:39:22.631Z,51.97
2023-01-26T09:42:29.639Z,51.35
2023-01-26T09:45:22.888Z,53.13
2023-01-26T09:48:41.852Z,51.78
2023-01-26T09:51:24.836Z,49.75
2023-01-26T09:53:57.245Z,51.72
2023-01-26T09:56:30.678Z,51.90
2023-01-26T09:59:17.077Z,50.42
2023-01-26T10:02:06.735Z,50.13
2023-01-26T10:04:39.158Z,49.90
2023-01-26T10:07:10.358Z,48.60
2023-01-26T10:09:38.649Z,46.97
2023-01-26T10:12:15.092Z,49.20
2023-01-26T10:14:46.705Z,48.03
2023-01-26T10:17:18.304Z,46.10
2023-01-26T10:20:32.734Z,49.20
2023-01-26T10:23:07.193Z,47.90
2023-01-26T10:25:39.386Z,47.58
2023-01-26T10:28:18.141Z,46.90
2023-01-26T10:30:46.462Z,48.50
2023-01-26T10:33:18.544Z,43.28
2023-01-26T10:35:45.586Z,48.10
2023-01-26T10:38:33.666Z,45.97
2023-01-26T10:41:01.861Z,45.25
2023-01-26T10:43:28.264Z,47.50
2023-01-26T10:45:54.713Z,46.30
2023-01-26T10:48:27.207Z,39.60
2023-01-26T10:50:54.328Z,39.97
2023-01-26T10:53:29.629Z,40.70
2023-01-26T10:56:01.059Z,41.97
2023-01-26T10:58:49.232Z,39.22
2023-01-26T11:01:18.624Z,37.72
2023-01-26T11:04:05.618Z,41.85
2023-01-26T11:06:33.025Z,39.75
2023-01-26T11:09:18.877Z,36.15
2023-01-26T11:11:58.351Z,37.35
2023-01-26T11:14:25.167Z,40.85
2023-01-26T11:17:00.289Z,37.10
2023-01-26T11:19:35.750Z,36.45
2023-01-26T11:22:08.415Z,37.17
2023-01-26T11:25:00.291Z,35.58
2023-01-26T11:27:53.590Z,35.75
2023-01-26T11:30:38.783Z,33.45
2023-01-26T11:33:30.066Z,34.42
2023-01-26T11:36:15.526Z,34.13
2023-01-26T11:39:02.705Z,36.55
2023-01-26T11:42:00.669Z,32.40
2023-01-26T11:44:48.873Z,31.35
2023-01-26T11:47:24.314Z,32.10
2023-01-26T11:50:16.888Z,34.80
2023-01-26T11:52:57.222Z,35.80
2023-01-26T11:55:38.661Z,36.75
2023-01-26T11:58:23.599Z,37.97
2023-01-26T12:00:52.986Z,35.15
2023-01-26T12:03:37.777Z,37.75
2023-01-26T12:06:14.158Z,37.38
2023-01-26T12:09:04.463Z,37.33
2023-01-26T12:11:42.305Z,33.35
2023-01-26T12:14:23.800Z,33.75
2023-01-26T12:17:17.692Z,36.67
2023-01-26T12:19:55.075Z,34.08
2023-01-26T12:22:28.464Z,36.30
2023-01-26T12:25:18.587Z,40.33
2023-01-26T12:27:58.501Z,36.05
2023-01-26T12:30:38.035Z,40.60
2023-01-26T12:33:04.879Z,40.65
2023-01-26T12:35:55.653Z,44.97
2023-01-26T12:38:45.890Z,42.13
2023-01-26T12:41:47.571Z,38.42
2023-01-26T12:44:22.528Z,39.33
2023-01-26T12:46:57.997Z,38.80
2023-01-26T12:49:32.951Z,38.42
2023-01-26T12:52:07.934Z,41.25
2023-01-26T12:54:40.657Z,44.00
2023-01-26T12:57:15.048Z,40.97
2023-01-26T12:59:48.265Z,46.72
2023-01-26T13:02:15.214Z,48.38
2023-01-26T13:04:44.388Z,51.72
2023-01-26T13:07:29.458Z,53.95
2023-01-26T13:10:22.980Z,48.00
2023-01-26T13:13:07.931Z,49.20
2023-01-26T13:15:34.447Z,49.90
2023-01-26T13:18:02.979Z,48.33
2023-01-26T13:20:43.893Z,53.05
2023-01-26T13:23:28.744Z,55.92
2023-01-26T13:26:14.980Z,54.25
2023-01-26T13:28:42.288Z,56.35
2023-01-26T13:31:10.665Z,60.55
2023-01-26T13:33:37.739Z,64.30
2023-01-26T13:36:12.013Z,61.58
2023-01-26T13:38:47.628Z,62.08
2023-01-26T13:41:19.566Z,62.65
2023-01-26T13:43:48.941Z,63.95
2023-01-26T13:46:25.697Z,60.10
2023-01-26T13:48:54.634Z,67.55
2023-01-26T13:51:25.394Z,65.07
2023-01-26T13:53:58.073Z,70.38
2023-01-26T13:56:33.910Z,65.40
2023-01-26T13:59:26.576Z,65.40
2023-01-26T14:01:55.012Z,68.18
2023-01-26T14:04:25.383Z,69.68
2023-01-26T14:07:00.931Z,68.50
2023-01-26T14:09:30.356Z,71.22
2023-01-26T14:12:00.142Z,67.25
2023-01-26T14:14:33.178Z,69.85
2023-01-26T14:17:00.435Z,67.50
2023-01-26T14:19:29.079Z,70.93
2023-01-26T14:22:00.003Z,70.38
2023-01-26T14:24:36.063Z,72.03
2023-01-26T14:27:03.888Z,69.85
2023-01-26T14:29:38.402Z,77.85
2023-01-26T14:32:14.038Z,71.80
2023-01-26T14:34:55.346Z,67.60
2023-01-26T14:37:22.736Z,69.28
2023-01-26T14:39:50.323Z,69.30
2023-01-26T14:42:19.564Z,67.05
2023-01-26T14:44:46.537Z,67.35
2023-01-26T14:47:19.103Z,68.88
2023-01-26T14:49:55.684Z,69.97
2023-01-26T14:52:35.120Z,65.13
2023-01-26T14:55:17.108Z,70.88
2023-01-26T14:57:43.597Z,69.57
2023-01-26T15:00:42.610Z,67.32
2023-01-26T15:03:19.283Z,67.18
2023-01-26T15:05:45.970Z,62.28
2023-01-26T15:08:18.475Z,67.93
2023-01-26T15:11:16.141Z,67.80
2023-01-26T15:13:45.723Z,67.95
2023-01-26T15:16:21.046Z,70.78
2023-01-26T15:19:01.678Z,69.03
2023-01-26T15:21:32.757Z,67.05
2023-01-26T15:23:59.339Z,71.45
2023-01-26T15:26:32.276Z,67.03
2023-01-26T15:29:05.838Z,64.60
2023-01-26T15:31:38.552Z,66.28
2023-01-26T15:34:06.372Z,64.88
2023-01-26T15:36:36.063Z,64.82
2023-01-26T15:39:14.332Z,65.10
2023-01-26T15:41:42.030Z,62.72
2023-01-26T15:44:19.888Z,65.97
2023-01-26T15:46:46.904Z,61.05
2023-01-26T15:49:13.992Z,59.00
2023-01-26T15:51:40.688Z,63.13
2023-01-26T15:54:10.167Z,58.35
2023-01-26T15:56:36.936Z,62.05
2023-01-26T15:59:03.422Z,61.72
2023-01-26T16:01:29.760Z,56.20
2023-01-26T16:03:56.270Z,61.05
2023-01-26T16:06:28.406Z,57.97
2023-01-26T16:08:56.213Z,56.88
2023-01-26T16:11:27.756Z,57.67
2023-01-26T16:14:03.352Z,55.22
2023-01-26T16:16:30.903Z,54.92
2023-01-26T16:18:57.367Z,58.92
2023-01-26T16:21:28.674Z,59.00
2023-01-26T16:23:55.087Z,55.65
2023-01-26T16:27:11.537Z,56.08
2023-01-26T16:29:37.978Z,52.97
2023-01-26T16:32:30.000Z,55.13
2023-01-26T16:34:56.523Z,51.67
2023-01-26T16:37:22.889Z,53.72
2023-01-26T16:39:49.254Z,53.42
2023-01-26T16:42:19.181Z,55.22
2023-01-26T16:44:46.175Z,62.33
2023-01-26T16:47:12.627Z,56.85
2023-01-26T16:49:39.045Z,54.92
2023-01-26T16:52:09.138Z,53.08
2023-01-26T16:54:43.891Z,56.00
2023-01-26T16:57:10.386Z,55.95
2023-01-26T16:59:36.853Z,55.47
2023-01-26T17:02:03.978Z,54.55
2023-01-26T17:04:30.333Z,54.28
2023-01-26T17:06:57.851Z,51.22
2023-01-26T17:09:24.593Z,52.15
2023-01-26T17:11:50.980Z,54.33
2023-01-26T17:14:17.563Z,52.05
2023-01-26T17:16:44.119Z,53.63
2023-01-26T17:19:10.483Z,56.30
2023-01-26T17:21:40.498Z,55.47
2023-01-26T17:24:07.242Z,55.13
2023-01-26T17:26:33.690Z,57.33
2023-01-26T17:29:00.029Z,58.97
2023-01-26T17:31:26.697Z,56.95
2023-01-26T17:33:54.415Z,56.78
2023-01-26T17:36:20.911Z,55.03
2023-01-26T17:38:48.266Z,55.08
2023-01-26T17:41:15.492Z,58.33
2023-01-26T17:43:41.938Z,56.15
2023-01-26T17:46:11.913Z,56.13
2023-01-26T17:48:38.790Z,56.95
2023-01-26T17:51:07.665Z,56.63
2023-01-26T17:53:37.302Z,61.55
2023-01-26T17:56:04.312Z,60.03
2023-01-26T17:58:30.720Z,61.00
2023-01-26T18:00:57.104Z,60.05
2023-01-26T18:03:26.854Z,60.20
2023-01-26T18:05:54.118Z,60.50
2023-01-26T18:08:20.948Z,62.67
2023-01-26T18:10:47.424Z,59.63
2023-01-26T18:13:14.460Z,61.78
2023-01-26T18:15:41.039Z,67.35
2023-01-26T18:18:07.483Z,64.10
2023-01-26T18:20:33.898Z,62.38
2023-01-26T18:23:00.478Z,62.63
2023-01-26T18:25:27.167Z,64.55
2023-01-26T18:27:54.551Z,63.53
2023-01-26T18:30:21.103Z,66.60
2023-01-26T18:32:47.595Z,63.67
2023-01-26T18:35:14.175Z,61.22
2023-01-26T18:37:40.588Z,65.15
2023-01-26T18:40:08.232Z,64.25
2023-01-26T18:42:34.633Z,61.60
2023-01-26T18:45:01.421Z,64.85
2023-01-26T18:47:28.640Z,64.40
2023-01-26T18:49:55.367Z,64.60
2023-01-26T18:52:22.614Z,66.80
2023-01-26T18:54:49.070Z,66.75
2023-01-26T18:57:16.400Z,67.82
2023-01-26T18:59:42.848Z,64.20
2023-01-26T19:02:13.409Z,64.07
2023-01-26T19:04:41.358Z,61.25
2023-01-26T19:07:10.026Z,59.78
2023-01-26T19:09:36.780Z,61.22
2023-01-26T19:12:05.424Z,59.08
2023-01-26T19:14:32.551Z,58.53
2023-01-26T19:16:59.908Z,58.50
2023-01-26T19:19:26.496Z,57.85
2023-01-26T19:21:53.060Z,57.00
2023-01-26T19:24:19.621Z,55.15
2023-01-26T19:26:46.354Z,57.03
2023-01-26T19:29:12.967Z,56.72
2023-01-26T19:31:39.513Z,57.58
2023-01-26T19:34:10.179Z,55.75
2023-01-26T19:36:36.992Z,56.53
2023-01-26T19:39:05.025Z,59.53
2023-01-26T19:41:31.609Z,54.17
2023-01-26T19:43:58.044Z,51.80
2023-01-26T19:46:24.498Z,54.08
2023-01-26T19:48:51.023Z,53.45
2023-01-26T19:51:20.452Z,51.95
2023-01-26T19:53:50.203Z,51.33
2023-01-26T19:56:24.015Z,52.15
2023-01-26T19:58:55.949Z,50.88
2023-01-26T20:01:23.935Z,49.63
2023-01-26T20:03:57.849Z,52.45
2023-01-26T20:06:27.086Z,50.20
2023-01-26T20:08:55.298Z,52.03
2023-01-26T20:11:25.022Z,53.83
2023-01-26T20:13:56.024Z,51.47
2023-01-26T20:16:22.844Z,51.95
2023-01-26T20:18:49.210Z,50.25
2023-01-26T20:21:15.887Z,51.88
2023-01-26T20:23:53.576Z,48.10
2023-01-26T20:26:20.959Z,48.72
2023-01-26T20:28:47.602Z,46.35
2023-01-26T20:31:17.429Z,47.55
2023-01-26T20:33:47.581Z,46.70
2023-01-26T20:36:19.183Z,45.17
2023-01-26T20:38:48.244Z,43.63
2023-01-26T20:41:17.362Z,43.67
2023-01-26T20:43:58.626Z,40.00
2023-01-26T20:46:27.713Z,39.17
2023-01-26T20:48:55.593Z,38.17
2023-01-26T20:51:25.044Z,39.33
2023-01-26T20:53:51.443Z,39.92
2023-01-26T20:56:20.532Z,42.70
2023-01-26T20:58:47.484Z,39.03
2023-01-26T21:01:17.875Z,39.75
2023-01-26T21:03:44.712Z,38.33
2023-01-26T21:06:14.102Z,38.20
2023-01-26T21:08:41.047Z,38.00
2023-01-26T21:11:11.021Z,37.88
2023-01-26T21:13:37.684Z,37.22
2023-01-26T21:16:07.472Z,36.97
2023-01-26T21:18:34.187Z,34.92
2023-01-26T21:21:04.074Z,36.10
2023-01-26T21:23:30.944Z,32.80
2023-01-26T21:26:02.878Z,36.10
2023-01-26T21:28:29.584Z,35.75
2023-01-26T21:31:04.274Z,36.80
2023-01-26T21:33:32.724Z,36.35
2023-01-26T21:36:01.738Z,35.97
2023-01-26T21:38:31.803Z,36.00
2023-01-26T21:41:29.182Z,37.40
2023-01-26T21:44:00.495Z,33.75
2023-01-26T21:46:28.027Z,34.50
2023-01-26T21:48:54.409Z,37.25
2023-01-26T21:51:59.489Z,34.38
2023-01-26T21:56:52.397Z,34.53
2023-01-26T21:59:19.127Z,33.63
2023-01-26T22:01:51.033Z,33.70
2023-01-26T22:04:29.539Z,36.17
2023-01-26T22:06:56.972Z,33.15
2023-01-26T22:09:24.233Z,32.70
2023-01-26T22:11:51.559Z,36.58
2023-01-26T22:14:20.411Z,33.83
2023-01-26T22:16:47.284Z,35.65
2023-01-26T22:19:13.673Z,38.63
2023-01-26T22:21:40.135Z,35.65
2023-01-26T22:24:09.383Z,32.45
2023-01-26T22:26:38.099Z,33.20
2023-01-26T22:29:05.056Z,34.35
2023-01-26T22:31:31.890Z,30.17
2023-01-26T22:34:00.571Z,30.58
2023-01-26T22:36:28.040Z,32.10
2023-01-26T22:38:54.511Z,32.35
2023-01-26T22:41:26.967Z,31.75
2023-01-26T22:43:55.150Z,33.50
2023-01-26T22:46:23.766Z,31.08
2023-01-26T22:48:51.146Z,29.70
2023-01-26T22:51:20.872Z,30.45
2023-01-26T22:53:52.505Z,31.80
2023-01-26T22:56:19.693Z,32.58
2023-01-26T22:59:04.191Z,31.15
2023-01-26T23:03:59.255Z,31.65
2023-01-26T23:06:26.367Z,30.98
2023-01-26T23:08:53.474Z,30.20
2023-01-26T23:11:22.841Z,30.85
2023-01-26T23:13:51.041Z,31.75
2023-01-26T23:16:17.948Z,30.52
2023-01-26T23:18:44.470Z,29.42
2023-01-26T23:21:11.363Z,30.35
2023-01-26T23:23:39.237Z,29.52
2023-01-26T23:26:05.902Z,29.33
2023-01-26T23:28:35.087Z,27.85
2023-01-26T23:31:02.111Z,25.30
2023-01-26T23:33:30.738Z,23.80
2023-01-26T23:35:57.465Z,23.27
2023-01-26T23:38:25.655Z,23.77
2023-01-26T23:40:52.713Z,21.00
2023-01-26T23:43:19.666Z,19.13
2023-01-26T23:45:48.015Z,20.08
2023-01-26T23:48:15.244Z,20.90
2023-01-26T23:50:41.735Z,18.98
2023-01-26T23:53:08.247Z,18.65
2023-01-26T23:55:35.292Z,19.90
2023-01-26T23:58:01.816Z,19.70
